Scroll down
FLIGHT INFORMATION
Austrian Airlines

AUA303

At Arrival Gate

LOWW
 UUEE
DATE: 2021-03-03
GATE: 
GATE DEPARTURE: 16:34
TAKEOFF: 16:56
DATE: 2021-03-03
GATE:  -
LANDING: 19:10
GATE ARRIVAL: 19:26
FLIGHT DATA
Crew: 
Speed: 
889 kph
Altitude: 
39,033 ft
Stage Length: 
1,662.5 km
Block Time: 
2.7 hrs
Flight Time: 
2.2 hrs
Fuel Used: 
14,993 kg
Cleared Route: LOWW KOXER XENAK JAN NIT SUPAK BIGLU RATIN AMKUK BAPRO AGLAN GIDLI DIPOP UUEE
TRACK DATA
50,000 ft 1,000 kts
AIRCRAFT INFO AND CUMULATIVE STATS
Aircraft Type: 
B772
Registration: 
SELCAL: 
DRHS
MSN/LN: 
28698 / 87
Operator: 
Total Flights: 
1
Total Block Time: 
2.7 hrs
Total Flight Time: 
2.2 hrs
Total Fuel Time: 
14,993 kg
DATALINK LOG | Newest first | Current as of: 2021-05-09 16:47:38
LABEL SEQUENCE CONTENT Dn/Up
QD313019:26 21.5▼ Dn
QC161719:10▼ Dn
2U3400UUEE 031600Z 25007MPS CAVOK 02/M04 Q1009 R24L/290045 R24C/290040 NOSIG▲ Up
2S3745UUEE▼ Dn
GA3754GATE PENDING▲ Up
GR3744UUEE 19:08 MAAS 00 YP/UM 00/00 WCHR/S/C 00/00/00 HI-VAL NO DIPL/VIP NO▼ Dn
QB001016:56▼ Dn
QA374816:34 55.1▼ Dn
2U2744LOWW 031420Z 03003KT 350V060 9000 NSC 09/04 Q1028 NOSIG▲ Up
2S2940LOWW▼ Dn
A31739CLEARED TO UUEE VIA KOXE1D KOXER Z649 XENAK M985 NIT SUPAK BIGLU RATIN L999 AGLAN M864 DIPOP DIPO1J. SQUAWK 5424.▲ Up
B31730LOWW UUEE AUA0303 OELPA ▼ Dn
Q01629[LINK ACK]▲ Up
Q01629[LINK TEST]▼ Dn


AIRCRAFT HISTORY
FLIGHT DATE FLIGHT NO. ORIGIN DESTINATION CLEARED ROUTE BLOCK TIME FLIGHT TIME FUEL USED PILOT
2021-03-03AUA303LOWW UUEE LOWW KOXER XENAK JAN NIT SUPAK BIGLU RATIN AMKUK BAPRO AGLAN GIDLI DIPOP UUEE2.7 hrs2.2 hrs33,053 lbMarc Ehnle